Time;durP1;ratioP1;P1;durP2;ratioP2;P2;SDS_P1;SDS_P2;PMS_P1;PMS_P2;Temp;Humidity;BMP_temperature;BMP_pressure;BME280_temperature;BME280_humidity;BME280_pressure;Samples;Min_cycle;Max_cycle;Signal;HPM_P1;HPM_P2
2022/07/29 00:01:00;;;;;;;;;;;25.60;53.30;;;;;;5115879;28;19965;-77
2022/07/29 00:03:25;;;;;;;;;;;25.60;53.30;;;;;;5115801;28;20313;-77
2022/07/29 00:05:52;;;;;;;;;;;25.60;53.60;;;;;;5116136;28;20350;-76
2022/07/29 00:08:18;;;;;;;;;;;25.60;53.40;;;;;;5115753;28;20354;-77
2022/07/29 00:10:43;;;;;;;;;;;25.60;53.30;;;;;;5115705;28;19907;-76
2022/07/29 00:13:09;;;;;;;;;;;25.50;53.20;;;;;;5115786;28;19919;-77
2022/07/29 00:15:35;;;;;;;;;;;25.60;53.40;;;;;;5115736;28;19912;-77
2022/07/29 00:18:00;;;;;;;;;;;25.60;53.40;;;;;;5114208;28;19954;-77
2022/07/29 00:20:26;;;;;;;;;;;25.50;53.30;;;;;;5115717;28;19908;-75
2022/07/29 00:22:52;;;;;;;;;;;25.50;53.30;;;;;;5115820;28;19915;-76
2022/07/29 00:25:18;;;;;;;;;;;25.50;53.30;;;;;;5115402;28;19908;-77
2022/07/29 00:27:45;;;;;;;;;;;25.50;53.40;;;;;;5115693;28;19952;-76
2022/07/29 00:30:11;;;;;;;;;;;25.50;53.20;;;;;;5114402;28;20242;-76
2022/07/29 00:32:37;;;;;;;;;;;25.50;53.30;;;;;;5115200;28;20261;-76
2022/07/29 00:37:47;;;;;;;;;;;25.50;53.20;;;;;;5115311;28;19922;-77
2022/07/29 00:40:12;;;;;;;;;;;25.50;53.50;;;;;;5114169;28;19998;-76
2022/07/29 00:42:48;;;;;;;;;;;25.50;53.30;;;;;;5115155;28;19985;-77
2022/07/29 00:45:15;;;;;;;;;;;25.40;53.30;;;;;;5115080;28;19912;-77
2022/07/29 00:47:40;;;;;;;;;;;25.40;53.40;;;;;;5115093;28;20277;-77
2022/07/29 00:50:07;;;;;;;;;;;25.40;53.40;;;;;;5115299;28;19919;-77
2022/07/29 00:52:34;;;;;;;;;;;25.40;53.50;;;;;;5114960;28;19915;-77
2022/07/29 00:55:00;;;;;;;;;;;25.40;53.50;;;;;;5113552;28;20264;-77
2022/07/29 00:57:26;;;;;;;;;;;25.30;54.10;;;;;;5114777;28;19995;-77
2022/07/29 00:59:51;;;;;;;;;;;25.30;53.30;;;;;;5115008;28;20277;-77
2022/07/29 01:02:17;;;;;;;;;;;25.30;53.40;;;;;;5114217;28;19908;-75
2022/07/29 01:04:42;;;;;;;;;;;25.30;53.40;;;;;;5114977;28;19994;-76
2022/07/29 01:07:08;;;;;;;;;;;25.30;53.40;;;;;;5114993;28;20344;-76
2022/07/29 01:09:35;;;;;;;;;;;25.30;53.50;;;;;;5114748;28;19915;-76
2022/07/29 01:12:01;;;;;;;;;;;25.20;53.30;;;;;;5114450;28;20358;-76
2022/07/29 01:14:27;;;;;;;;;;;25.10;53.40;;;;;;5114725;28;19916;-76
2022/07/29 01:17:01;;;;;;;;;;;25.10;53.40;;;;;;5114977;28;20254;-75
2022/07/29 01:19:50;;;;;;;;;;;25.00;53.50;;;;;;5114934;28;19915;-76
2022/07/29 01:22:19;;;;;;;;;;;25.00;53.70;;;;;;5114595;28;19908;-76
2022/07/29 01:24:56;;;;;;;;;;;25.00;53.80;;;;;;5114343;28;20350;-76
2022/07/29 01:27:31;;;;;;;;;;;24.90;53.70;;;;;;5114649;28;19912;-76
2022/07/29 01:29:58;;;;;;;;;;;24.90;53.80;;;;;;5113479;28;19915;-76
2022/07/29 01:32:32;;;;;;;;;;;24.90;53.80;;;;;;5114359;28;19908;-76
2022/07/29 01:35:04;;;;;;;;;;;24.90;53.90;;;;;;5114491;28;20065;-76
2022/07/29 01:37:34;;;;;;;;;;;24.90;53.90;;;;;;5114536;28;19954;-76
2022/07/29 01:40:01;;;;;;;;;;;24.80;53.90;;;;;;5114805;28;19908;-76
2022/07/29 01:42:27;;;;;;;;;;;24.80;53.90;;;;;;5113202;28;20464;-76
2022/07/29 01:45:05;;;;;;;;;;;24.80;53.90;;;;;;5114874;28;19973;-76
2022/07/29 01:47:34;;;;;;;;;;;24.80;53.90;;;;;;5114126;28;19970;-77
2022/07/29 01:50:00;;;;;;;;;;;24.80;53.90;;;;;;5114471;28;19919;-75
2022/07/29 01:52:44;;;;;;;;;;;24.80;53.90;;;;;;5114080;28;20280;-76
2022/07/29 01:55:14;;;;;;;;;;;24.80;53.80;;;;;;5114116;28;19933;-77
2022/07/29 01:57:41;;;;;;;;;;;24.80;54.40;;;;;;5118003;28;19911;-76
2022/07/29 02:00:07;;;;;;;;;;;24.80;53.80;;;;;;5117127;28;20570;-77
2022/07/29 02:02:34;;;;;;;;;;;24.80;53.80;;;;;;5118434;28;19950;-77
2022/07/29 02:05:01;;;;;;;;;;;24.80;53.80;;;;;;5118130;28;19934;-76
2022/07/29 02:07:29;;;;;;;;;;;24.80;53.80;;;;;;5118462;28;19951;-77
2022/07/29 02:09:55;;;;;;;;;;;24.80;53.80;;;;;;5118404;28;19915;-76
2022/07/29 02:12:21;;;;;;;;;;;24.70;53.80;;;;;;5118065;28;20003;-76
2022/07/29 02:14:50;;;;;;;;;;;24.70;53.80;;;;;;5118444;28;20010;-76
2022/07/29 02:17:20;;;;;;;;;;;24.70;53.80;;;;;;5118263;28;20300;-77
2022/07/29 02:19:47;;;;;;;;;;;24.70;53.80;;;;;;5118523;28;19968;-76
2022/07/29 02:22:13;;;;;;;;;;;24.60;54.00;;;;;;5118121;28;19912;-76
2022/07/29 02:24:40;;;;;;;;;;;24.60;54.10;;;;;;5116405;28;20334;-78
2022/07/29 02:27:07;;;;;;;;;;;24.60;54.00;;;;;;5115926;28;19914;-76
2022/07/29 02:29:33;;;;;;;;;;;24.60;54.10;;;;;;5117586;28;19954;-75
2022/07/29 02:31:59;;;;;;;;;;;24.60;54.00;;;;;;5117895;28;19915;-76
2022/07/29 02:34:25;;;;;;;;;;;24.60;54.10;;;;;;5117344;28;20358;-77
2022/07/29 02:36:52;;;;;;;;;;;24.50;53.90;;;;;;5118228;28;19911;-77
2022/07/29 02:39:18;;;;;;;;;;;24.40;54.00;;;;;;5117546;28;19915;-76
2022/07/29 02:41:46;;;;;;;;;;;24.40;54.00;;;;;;5117334;28;20003;-77
2022/07/29 02:44:13;;;;;;;;;;;24.40;54.10;;;;;;5116762;28;19957;-77
2022/07/29 02:46:42;;;;;;;;;;;24.40;54.20;;;;;;5117616;28;19908;-76
2022/07/29 02:49:11;;;;;;;;;;;24.40;54.20;;;;;;5117452;28;20227;-76
2022/07/29 02:51:41;;;;;;;;;;;24.40;54.20;;;;;;5117452;28;19908;-76
2022/07/29 02:54:08;;;;;;;;;;;24.40;54.30;;;;;;5116034;28;20439;-76
2022/07/29 02:56:34;;;;;;;;;;;24.40;54.30;;;;;;5117163;28;19969;-77
2022/07/29 02:59:03;;;;;;;;;;;24.40;54.10;;;;;;5117398;28;20374;-76
2022/07/29 03:01:31;;;;;;;;;;;24.50;54.00;;;;;;5117533;28;19950;-78
2022/07/29 03:03:57;;;;;;;;;;;24.40;53.80;;;;;;5117147;28;19908;-76
2022/07/29 03:06:23;;;;;;;;;;;24.40;54.10;;;;;;5117616;28;20353;-77
2022/07/29 03:08:49;;;;;;;;;;;24.40;54.20;;;;;;5116460;28;19912;-77
2022/07/29 03:11:15;;;;;;;;;;;24.40;54.30;;;;;;5117053;28;20273;-77
2022/07/29 03:13:41;;;;;;;;;;;24.40;54.20;;;;;;5117039;28;19908;-77
2022/07/29 03:16:08;;;;;;;;;;;24.40;54.30;;;;;;5116884;28;20049;-74
2022/07/29 03:18:33;;;;;;;;;;;24.40;54.40;;;;;;5116469;28;19937;-76
2022/07/29 03:20:59;;;;;;;;;;;24.40;54.50;;;;;;5116117;28;19915;-76
2022/07/29 03:23:27;;;;;;;;;;;24.40;54.40;;;;;;5116594;28;19916;-81
2022/07/29 03:25:53;;;;;;;;;;;24.40;54.30;;;;;;5116323;28;19998;-76
2022/07/29 03:28:19;;;;;;;;;;;24.50;54.40;;;;;;5117038;28;19955;-78
2022/07/29 03:30:45;;;;;;;;;;;24.60;54.40;;;;;;5116358;28;19953;-75
2022/07/29 03:33:10;;;;;;;;;;;24.60;54.50;;;;;;5116581;28;19912;-76
2022/07/29 03:35:36;;;;;;;;;;;24.60;54.30;;;;;;5116197;28;19924;-77
2022/07/29 03:38:01;;;;;;;;;;;24.60;54.30;;;;;;5116329;28;19912;-76
2022/07/29 03:40:45;;;;;;;;;;;24.70;54.30;;;;;;5116119;28;19912;-77
2022/07/29 03:43:13;;;;;;;;;;;24.70;54.20;;;;;;5116426;28;19961;-77
2022/07/29 03:45:39;;;;;;;;;;;24.70;54.20;;;;;;5115322;28;19981;-76
2022/07/29 03:48:09;;;;;;;;;;;24.70;54.10;;;;;;5115451;28;19957;-76
2022/07/29 03:50:35;;;;;;;;;;;24.70;54.20;;;;;;5114248;28;19928;-78
2022/07/29 03:53:01;;;;;;;;;;;24.70;54.30;;;;;;5116464;28;19908;-76
2022/07/29 03:55:28;;;;;;;;;;;24.80;54.20;;;;;;5115294;28;19920;-75
2022/07/29 03:57:55;;;;;;;;;;;24.70;54.20;;;;;;5115981;28;19908;-76
2022/07/29 04:00:21;;;;;;;;;;;24.70;54.30;;;;;;5115283;28;20072;-76
2022/07/29 04:02:48;;;;;;;;;;;24.60;54.60;;;;;;5115839;28;19915;-76
2022/07/29 04:05:14;;;;;;;;;;;24.60;54.70;;;;;;5115661;28;19922;-77
2022/07/29 04:07:40;;;;;;;;;;;24.50;54.60;;;;;;5115599;28;20611;-77
2022/07/29 04:10:07;;;;;;;;;;;24.50;54.80;;;;;;5114689;28;20006;-77
2022/07/29 04:12:32;;;;;;;;;;;24.50;55.00;;;;;;5114755;28;19912;-75
2022/07/29 04:14:58;;;;;;;;;;;24.40;54.80;;;;;;5114594;28;19923;-76
2022/07/29 04:17:23;;;;;;;;;;;24.40;55.00;;;;;;5114108;28;19915;-77
2022/07/29 04:19:49;;;;;;;;;;;24.50;55.10;;;;;;5113652;28;19908;-78
2022/07/29 04:22:14;;;;;;;;;;;24.50;54.80;;;;;;5114439;28;19908;-78
2022/07/29 04:24:40;;;;;;;;;;;24.60;54.90;;;;;;5112852;28;19923;-76
2022/07/29 04:27:05;;;;;;;;;;;24.60;54.90;;;;;;5114133;28;19907;-76
2022/07/29 04:29:31;;;;;;;;;;;24.60;54.90;;;;;;5113979;28;19953;-77
2022/07/29 04:31:56;;;;;;;;;;;24.70;54.90;;;;;;5113947;28;19912;-76
2022/07/29 04:34:22;;;;;;;;;;;24.70;55.10;;;;;;5113825;28;19928;-76
2022/07/29 04:36:47;;;;;;;;;;;24.70;54.80;;;;;;5114208;28;20006;-77
2022/07/29 04:39:13;;;;;;;;;;;24.70;54.20;;;;;;5113875;28;19942;-75
2022/07/29 04:41:38;;;;;;;;;;;24.60;54.80;;;;;;5113903;28;19912;-79
2022/07/29 04:44:05;;;;;;;;;;;24.50;54.60;;;;;;5113592;28;19908;-76
2022/07/29 04:46:31;;;;;;;;;;;24.50;54.70;;;;;;5113570;28;20048;-77
2022/07/29 04:48:56;;;;;;;;;;;24.50;54.90;;;;;;5114324;28;20018;-77
2022/07/29 04:51:22;;;;;;;;;;;24.40;54.80;;;;;;5113703;28;20425;-76
2022/07/29 04:53:47;;;;;;;;;;;24.40;55.20;;;;;;5095133;28;19992;-78
2022/07/29 04:56:13;;;;;;;;;;;24.30;55.00;;;;;;5113222;28;19919;-75
2022/07/29 04:58:38;;;;;;;;;;;24.30;54.90;;;;;;5112240;28;19987;-76
2022/07/29 05:01:04;;;;;;;;;;;24.20;55.40;;;;;;5113614;28;20003;-82
2022/07/29 05:03:29;;;;;;;;;;;24.20;55.90;;;;;;5111156;28;19937;-77
2022/07/29 05:05:55;;;;;;;;;;;24.20;55.80;;;;;;5112666;28;20416;-79
2022/07/29 05:08:20;;;;;;;;;;;24.20;56.00;;;;;;5112281;28;19974;-80
2022/07/29 05:10:46;;;;;;;;;;;24.30;55.70;;;;;;5112357;28;19999;-75
2022/07/29 05:13:12;;;;;;;;;;;24.30;55.80;;;;;;5113380;28;19912;-76
2022/07/29 05:15:37;;;;;;;;;;;24.30;55.40;;;;;;5113250;28;19920;-71
2022/07/29 05:18:03;;;;;;;;;;;24.40;55.00;;;;;;5112614;28;19920;-80
2022/07/29 05:20:29;;;;;;;;;;;23.80;54.70;;;;;;5111953;28;20069;-77
2022/07/29 05:22:55;;;;;;;;;;;24.30;55.10;;;;;;5112675;28;19908;-76
2022/07/29 05:25:21;;;;;;;;;;;24.30;55.10;;;;;;5112643;28;20353;-77
2022/07/29 05:27:47;;;;;;;;;;;24.30;55.20;;;;;;5112746;28;19914;-76
2022/07/29 05:30:12;;;;;;;;;;;24.30;55.30;;;;;;5112205;28;20308;-76
2022/07/29 05:32:38;;;;;;;;;;;24.40;55.20;;;;;;5111072;28;20311;-75
2022/07/29 05:35:04;;;;;;;;;;;24.30;54.70;;;;;;5112307;28;20001;-76
2022/07/29 05:37:29;;;;;;;;;;;24.40;55.20;;;;;;5112644;28;19934;-77
2022/07/29 05:39:55;;;;;;;;;;;24.40;54.90;;;;;;5112956;28;19959;-76
2022/07/29 05:42:21;;;;;;;;;;;24.40;54.60;;;;;;5112949;28;19908;-77
2022/07/29 05:44:47;;;;;;;;;;;24.50;54.30;;;;;;5112680;28;20004;-77
2022/07/29 05:47:12;;;;;;;;;;;24.50;54.50;;;;;;5107826;28;19919;-77
2022/07/29 05:49:38;;;;;;;;;;;24.50;54.50;;;;;;5113037;28;20304;-78
2022/07/29 05:52:04;;;;;;;;;;;24.50;54.40;;;;;;5112339;28;19907;-78
2022/07/29 05:54:29;;;;;;;;;;;24.50;54.40;;;;;;5112234;28;19912;-75
2022/07/29 05:56:55;;;;;;;;;;;24.50;54.60;;;;;;5112437;28;19915;-77
2022/07/29 05:59:21;;;;;;;;;;;24.60;54.60;;;;;;5112485;28;19915;-76
2022/07/29 06:01:46;;;;;;;;;;;24.60;54.40;;;;;;5112301;28;19946;-78
2022/07/29 06:04:12;;;;;;;;;;;24.60;54.30;;;;;;5113015;28;19928;-77
2022/07/29 06:06:37;;;;;;;;;;;24.70;54.50;;;;;;5110115;28;20010;-76
2022/07/29 06:09:03;;;;;;;;;;;24.70;54.20;;;;;;5112500;28;20349;-75
2022/07/29 06:11:28;;;;;;;;;;;24.70;54.20;;;;;;5113442;28;19968;-86
2022/07/29 06:13:54;;;;;;;;;;;24.70;54.20;;;;;;5112933;28;19911;-83
2022/07/29 06:16:19;;;;;;;;;;;24.70;54.20;;;;;;5113522;28;19977;-92
2022/07/29 06:18:45;;;;;;;;;;;24.70;54.10;;;;;;5113781;28;19932;-87
2022/07/29 06:21:10;;;;;;;;;;;24.80;53.80;;;;;;5096526;28;19908;-85
2022/07/29 06:23:37;;;;;;;;;;;24.80;54.20;;;;;;5112396;28;19998;-82
2022/07/29 06:26:03;;;;;;;;;;;24.80;54.10;;;;;;5112755;28;19908;-85
2022/07/29 06:28:28;;;;;;;;;;;24.80;53.70;;;;;;5112023;28;19908;-84
2022/07/29 06:30:54;;;;;;;;;;;24.90;53.90;;;;;;5112446;28;19908;-79
2022/07/29 06:33:19;;;;;;;;;;;24.90;53.90;;;;;;5111872;28;19923;-84
2022/07/29 06:35:47;;;;;;;;;;;24.90;54.10;;;;;;5111945;28;19927;-82
2022/07/29 06:38:13;;;;;;;;;;;25.00;53.90;;;;;;5112349;28;19908;-85
2022/07/29 06:40:59;;;;;;;;;;;25.00;53.70;;;;;;5110757;28;19961;-83
2022/07/29 06:43:26;;;;;;;;;;;25.00;53.80;;;;;;5112970;28;19912;-84
2022/07/29 06:45:52;;;;;;;;;;;25.00;53.60;;;;;;5115185;28;19907;-78
2022/07/29 06:48:17;;;;;;;;;;;25.00;53.60;;;;;;5116070;28;19957;-77
2022/07/29 06:50:43;;;;;;;;;;;25.10;53.60;;;;;;5115267;28;19911;-78
2022/07/29 06:53:09;;;;;;;;;;;25.10;53.80;;;;;;5115995;28;20369;-77
2022/07/29 06:55:34;;;;;;;;;;;25.10;53.60;;;;;;5115907;28;19915;-78
2022/07/29 06:58:00;;;;;;;;;;;25.10;53.60;;;;;;5116928;28;19912;-78
2022/07/29 07:00:25;;;;;;;;;;;25.10;53.80;;;;;;5116288;28;19953;-79
2022/07/29 07:02:51;;;;;;;;;;;25.10;53.50;;;;;;5115734;28;19908;-78
2022/07/29 07:05:16;;;;;;;;;;;25.20;53.60;;;;;;5116148;28;20380;-78
2022/07/29 07:07:42;;;;;;;;;;;25.20;53.10;;;;;;5114967;28;20320;-78
2022/07/29 07:10:08;;;;;;;;;;;25.30;53.10;;;;;;5116810;28;19908;-77
2022/07/29 07:12:33;;;;;;;;;;;25.30;53.00;;;;;;5116765;28;20358;-77
2022/07/29 07:14:59;;;;;;;;;;;25.30;53.10;;;;;;5117122;28;19922;-78
2022/07/29 07:17:24;;;;;;;;;;;25.40;52.80;;;;;;5115302;28;19998;-78
2022/07/29 07:19:50;;;;;;;;;;;25.30;52.60;;;;;;5117161;28;19961;-78
2022/07/29 07:22:15;;;;;;;;;;;25.40;52.60;;;;;;5117221;28;19908;-78
2022/07/29 07:24:41;;;;;;;;;;;25.40;52.00;;;;;;5116684;28;20357;-78
2022/07/29 07:27:06;;;;;;;;;;;25.50;52.10;;;;;;5116359;28;19959;-79
2022/07/29 07:29:32;;;;;;;;;;;25.40;50.60;;;;;;5116175;28;19949;-78
2022/07/29 07:31:58;;;;;;;;;;;25.50;50.20;;;;;;5116790;28;19908;-78
2022/07/29 07:34:23;;;;;;;;;;;25.50;51.00;;;;;;5116375;28;19977;-78
2022/07/29 07:36:49;;;;;;;;;;;25.50;51.80;;;;;;5116468;28;19918;-79
2022/07/29 07:39:15;;;;;;;;;;;25.50;51.50;;;;;;5115390;28;20003;-76
2022/07/29 07:41:40;;;;;;;;;;;25.50;51.60;;;;;;5116263;28;19911;-78
2022/07/29 07:44:06;;;;;;;;;;;25.50;51.70;;;;;;5115547;28;19912;-78
2022/07/29 07:46:32;;;;;;;;;;;25.60;51.10;;;;;;5116852;28;20389;-78
2022/07/29 07:48:57;;;;;;;;;;;25.60;51.10;;;;;;5116418;28;20265;-77
2022/07/29 07:51:23;;;;;;;;;;;25.60;51.20;;;;;;5115020;28;19908;-79
2022/07/29 07:53:50;;;;;;;;;;;25.60;50.30;;;;;;5116094;28;19939;-77
2022/07/29 07:56:16;;;;;;;;;;;25.70;51.00;;;;;;5116752;28;19912;-78
2022/07/29 07:58:41;;;;;;;;;;;25.70;50.90;;;;;;5116519;28;19918;-78
2022/07/29 08:01:08;;;;;;;;;;;25.70;50.90;;;;;;5116323;28;20253;-77
2022/07/29 08:03:33;;;;;;;;;;;25.70;51.10;;;;;;5115968;28;19976;-78
2022/07/29 08:05:59;;;;;;;;;;;25.70;50.80;;;;;;5116297;28;19907;-78
2022/07/29 08:08:24;;;;;;;;;;;25.70;50.40;;;;;;5116046;28;20360;-77
2022/07/29 08:10:53;;;;;;;;;;;25.80;50.80;;;;;;5115762;28;19912;-78
2022/07/29 08:13:22;;;;;;;;;;;25.80;50.80;;;;;;5115880;28;20403;-78
2022/07/29 08:15:57;;;;;;;;;;;25.90;50.40;;;;;;5115785;28;19912;-78
2022/07/29 08:18:26;;;;;;;;;;;25.90;50.50;;;;;;5115699;28;19912;-78
2022/07/29 08:20:51;;;;;;;;;;;25.90;50.60;;;;;;5114094;28;20277;-78
2022/07/29 08:23:18;;;;;;;;;;;25.90;50.50;;;;;;5115446;28;19914;-78
2022/07/29 08:25:44;;;;;;;;;;;26.00;50.30;;;;;;5115475;28;20375;-78
2022/07/29 08:28:10;;;;;;;;;;;26.10;50.20;;;;;;5115517;28;19954;-77
2022/07/29 08:30:35;;;;;;;;;;;26.10;50.40;;;;;;5113793;28;19907;-78
2022/07/29 08:33:01;;;;;;;;;;;26.10;50.30;;;;;;5114067;28;19994;-78
2022/07/29 08:35:26;;;;;;;;;;;26.20;50.20;;;;;;5113489;28;19924;-77
2022/07/29 08:37:52;;;;;;;;;;;26.20;50.30;;;;;;5114805;28;20370;-77
2022/07/29 08:40:18;;;;;;;;;;;26.20;50.20;;;;;;5115619;28;19973;-78
2022/07/29 08:42:44;;;;;;;;;;;26.30;50.00;;;;;;5114960;28;19912;-78
2022/07/29 08:45:10;;;;;;;;;;;26.30;50.10;;;;;;5115193;28;19957;-77
2022/07/29 08:47:39;;;;;;;;;;;26.40;50.30;;;;;;5115106;28;20265;-78
2022/07/29 08:50:05;;;;;;;;;;;26.40;50.40;;;;;;5114297;28;19914;-78
2022/07/29 08:52:33;;;;;;;;;;;26.50;50.20;;;;;;5113706;28;19990;-77
2022/07/29 08:54:59;;;;;;;;;;;26.50;50.10;;;;;;5112568;28;19915;-81
2022/07/29 08:57:25;;;;;;;;;;;26.60;50.10;;;;;;5115078;28;19980;-79
2022/07/29 08:59:52;;;;;;;;;;;26.60;49.60;;;;;;5114668;28;19951;-78
2022/07/29 09:02:21;;;;;;;;;;;26.60;49.70;;;;;;5114216;28;19908;-80
2022/07/29 09:04:47;;;;;;;;;;;26.60;49.90;;;;;;5113574;28;20293;-77
2022/07/29 09:07:16;;;;;;;;;;;26.60;49.60;;;;;;5114110;28;19915;-78
2022/07/29 09:09:42;;;;;;;;;;;26.60;49.50;;;;;;5114237;28;20338;-80
2022/07/29 09:12:11;;;;;;;;;;;26.70;49.50;;;;;;5113157;28;19915;-79
2022/07/29 09:14:39;;;;;;;;;;;26.70;49.10;;;;;;5113875;28;20354;-79
2022/07/29 09:17:05;;;;;;;;;;;26.60;48.50;;;;;;5114544;28;19908;-78
2022/07/29 09:19:35;;;;;;;;;;;26.70;49.40;;;;;;5114601;28;19907;-79
2022/07/29 09:22:02;;;;;;;;;;;26.70;49.10;;;;;;5097309;28;19908;-78
2022/07/29 09:24:34;;;;;;;;;;;26.70;49.20;;;;;;5114122;28;20007;-79
2022/07/29 09:27:00;;;;;;;;;;;26.70;49.00;;;;;;5114580;28;19908;-78
2022/07/29 09:29:27;;;;;;;;;;;26.70;48.40;;;;;;5114373;28;19999;-77
2022/07/29 09:31:53;;;;;;;;;;;26.70;48.80;;;;;;5113198;28;19908;-78
2022/07/29 09:34:26;;;;;;;;;;;26.70;49.20;;;;;;5113953;28;19923;-78
2022/07/29 09:36:53;;;;;;;;;;;26.70;48.90;;;;;;5113603;28;20319;-77
2022/07/29 09:39:35;;;;;;;;;;;26.70;48.40;;;;;;5114334;28;19908;-81
2022/07/29 09:42:01;;;;;;;;;;;26.70;48.40;;;;;;5114463;28;19919;-78
2022/07/29 09:44:40;;;;;;;;;;;26.70;48.30;;;;;;5114391;28;19958;-80
2022/07/29 09:47:08;;;;;;;;;;;26.80;48.80;;;;;;5114780;28;19908;-77
2022/07/29 09:49:34;;;;;;;;;;;26.80;48.70;;;;;;5114878;28;20315;-76
2022/07/29 09:52:04;;;;;;;;;;;26.80;48.60;;;;;;5114709;28;19916;-78
2022/07/29 09:54:34;;;;;;;;;;;26.70;47.50;;;;;;5112919;28;19908;-78
2022/07/29 09:56:59;;;;;;;;;;;26.70;48.20;;;;;;5114006;28;19916;-78
2022/07/29 09:59:26;;;;;;;;;;;26.80;48.40;;;;;;5114538;28;20002;-77
2022/07/29 10:01:52;;;;;;;;;;;26.80;47.70;;;;;;5114260;28;19908;-78
2022/07/29 10:04:17;;;;;;;;;;;26.80;48.20;;;;;;5113024;28;19914;-77
2022/07/29 10:06:59;;;;;;;;;;;26.80;48.30;;;;;;5114204;28;19954;-78
2022/07/29 10:09:25;;;;;;;;;;;26.90;47.80;;;;;;5113815;28;20373;-78
2022/07/29 10:12:10;;;;;;;;;;;26.90;48.00;;;;;;5113800;28;19942;-77
2022/07/29 10:14:37;;;;;;;;;;;26.90;47.80;;;;;;5113748;28;20318;-79
2022/07/29 10:17:03;;;;;;;;;;;26.90;46.80;;;;;;5114319;28;19964;-78
2022/07/29 10:19:30;;;;;;;;;;;27.00;46.60;;;;;;5118088;28;19968;-78
2022/07/29 10:21:56;;;;;;;;;;;27.00;46.90;;;;;;5117930;28;19954;-78
2022/07/29 10:24:22;;;;;;;;;;;27.00;46.80;;;;;;5117806;28;20277;-78
2022/07/29 10:26:48;;;;;;;;;;;27.10;47.00;;;;;;5118079;28;19915;-78
2022/07/29 10:29:13;;;;;;;;;;;27.10;46.90;;;;;;5116331;28;19915;-77
2022/07/29 10:31:52;;;;;;;;;;;27.10;46.40;;;;;;5117996;28;20006;-78
2022/07/29 10:34:41;;;;;;;;;;;27.20;46.70;;;;;;5116340;28;19928;-78
2022/07/29 10:37:14;;;;;;;;;;;27.20;47.10;;;;;;5088308;28;20026;-78
2022/07/29 10:39:45;;;;;;;;;;;27.20;46.90;;;;;;5117829;28;19908;-78
2022/07/29 10:42:11;;;;;;;;;;;27.20;45.70;;;;;;5117404;28;19953;-78
2022/07/29 10:44:40;;;;;;;;;;;27.20;46.50;;;;;;5116367;28;19908;-78
2022/07/29 10:47:05;;;;;;;;;;;27.20;44.90;;;;;;5117453;28;20022;-78
2022/07/29 10:49:31;;;;;;;;;;;27.20;46.20;;;;;;5116687;28;20358;-78
2022/07/29 10:51:58;;;;;;;;;;;27.20;46.20;;;;;;5116524;28;20251;-78
2022/07/29 10:54:33;;;;;;;;;;;27.20;46.20;;;;;;5117369;28;20297;-78
2022/07/29 10:57:12;;;;;;;;;;;27.30;45.60;;;;;;5117419;28;19916;-78
2022/07/29 10:59:38;;;;;;;;;;;27.20;45.50;;;;;;5117970;28;20000;-79
2022/07/29 11:02:24;;;;;;;;;;;27.20;46.40;;;;;;5117467;28;19999;-77
2022/07/29 11:04:49;;;;;;;;;;;27.30;46.10;;;;;;5116910;28;19908;-78
2022/07/29 11:07:16;;;;;;;;;;;27.30;46.60;;;;;;5117266;28;20264;-79
2022/07/29 11:09:42;;;;;;;;;;;27.30;46.60;;;;;;5116932;28;19908;-77
2022/07/29 11:12:33;;;;;;;;;;;27.30;46.50;;;;;;5116743;28;19908;-78
2022/07/29 11:15:01;;;;;;;;;;;27.30;46.60;;;;;;5092716;28;19915;-78
2022/07/29 11:17:27;;;;;;;;;;;27.30;46.20;;;;;;5116890;28;20277;-78
2022/07/29 11:20:12;;;;;;;;;;;27.30;46.20;;;;;;5117121;28;19908;-78
2022/07/29 11:22:38;;;;;;;;;;;27.30;46.40;;;;;;5117377;28;20009;-79
2022/07/29 11:25:13;;;;;;;;;;;27.40;46.40;;;;;;5117191;28;19911;-78
2022/07/29 11:27:39;;;;;;;;;;;27.40;46.60;;;;;;5115653;28;20033;-78
2022/07/29 11:30:05;;;;;;;;;;;27.40;46.30;;;;;;5116487;28;19941;-77
2022/07/29 11:32:38;;;;;;;;;;;27.40;46.00;;;;;;5116520;28;19911;-78
2022/07/29 11:35:10;;;;;;;;;;;27.40;45.90;;;;;;5114777;28;19924;-78
2022/07/29 11:37:35;;;;;;;;;;;27.50;46.00;;;;;;5115423;28;19952;-78
2022/07/29 11:40:04;;;;;;;;;;;27.50;45.80;;;;;;5115976;28;19967;-79
2022/07/29 11:42:37;;;;;;;;;;;27.50;45.80;;;;;;5116914;28;19922;-78
2022/07/29 11:45:06;;;;;;;;;;;27.50;45.80;;;;;;5116629;28;19907;-78
2022/07/29 11:47:33;;;;;;;;;;;27.50;46.00;;;;;;5116439;28;19915;-77
2022/07/29 11:50:00;;;;;;;;;;;27.50;46.00;;;;;;5115292;28;19939;-78
2022/07/29 11:52:37;;;;;;;;;;;27.50;45.90;;;;;;5116426;28;19943;-78
2022/07/29 11:55:04;;;;;;;;;;;27.50;46.10;;;;;;5116116;28;19922;-79
2022/07/29 11:57:29;;;;;;;;;;;27.60;46.00;;;;;;5116153;28;19912;-77
2022/07/29 11:59:57;;;;;;;;;;;27.60;46.20;;;;;;5114666;28;19941;-77
2022/07/29 12:02:23;;;;;;;;;;;27.60;46.10;;;;;;5115878;28;19908;-78
2022/07/29 12:04:49;;;;;;;;;;;27.70;45.80;;;;;;5116363;28;19919;-78
2022/07/29 12:07:15;;;;;;;;;;;27.60;45.90;;;;;;5116370;28;19915;-79
2022/07/29 12:09:49;;;;;;;;;;;27.70;46.10;;;;;;5115276;28;19911;-77
2022/07/29 12:12:15;;;;;;;;;;;27.80;45.90;;;;;;5114056;28;19908;-79
2022/07/29 12:14:45;;;;;;;;;;;27.80;46.00;;;;;;5114295;28;19915;-76
2022/07/29 12:17:25;;;;;;;;;;;27.80;45.20;;;;;;5115741;28;20372;-78
2022/07/29 12:19:51;;;;;;;;;;;27.90;45.60;;;;;;5115409;28;20007;-77
2022/07/29 12:22:26;;;;;;;;;;;28.00;45.90;;;;;;5115895;28;19911;-77
2022/07/29 12:24:53;;;;;;;;;;;28.00;45.90;;;;;;5115926;28;20342;-78
2022/07/29 12:27:18;;;;;;;;;;;28.10;45.80;;;;;;5114776;28;19912;-77
2022/07/29 12:29:44;;;;;;;;;;;28.10;45.70;;;;;;5115933;28;19907;-78
2022/07/29 12:32:09;;;;;;;;;;;28.20;45.90;;;;;;5114233;28;19912;-79
2022/07/29 12:34:35;;;;;;;;;;;28.30;45.80;;;;;;5115353;28;19931;-78
2022/07/29 12:37:01;;;;;;;;;;;28.30;45.70;;;;;;5116588;28;19919;-77
2022/07/29 12:39:27;;;;;;;;;;;28.40;45.80;;;;;;5115398;28;19912;-75
2022/07/29 12:41:53;;;;;;;;;;;28.40;45.20;;;;;;5115140;28;20277;-78
2022/07/29 12:44:19;;;;;;;;;;;28.40;45.80;;;;;;5115441;28;20006;-78
2022/07/29 12:46:48;;;;;;;;;;;28.50;45.60;;;;;;5115008;28;19908;-77
2022/07/29 12:49:21;;;;;;;;;;;28.50;45.50;;;;;;5113881;28;19915;-79
2022/07/29 12:51:46;;;;;;;;;;;28.60;45.80;;;;;;5115160;28;19907;-74
2022/07/29 12:57:15;;;;;;;;;;;28.70;45.80;;;;;;5114898;28;19980;-78
2022/07/29 12:59:41;;;;;;;;;;;28.80;45.50;;;;;;5114695;28;19916;-78
2022/07/29 13:02:06;;;;;;;;;;;28.90;45.60;;;;;;5096477;28;19911;-78
2022/07/29 13:04:33;;;;;;;;;;;28.90;45.40;;;;;;5114384;28;19915;-79
2022/07/29 13:07:03;;;;;;;;;;;29.00;45.30;;;;;;5115203;28;19920;-79
2022/07/29 13:09:38;;;;;;;;;;;29.10;45.30;;;;;;5115033;28;19907;-78
2022/07/29 13:12:09;;;;;;;;;;;29.20;45.20;;;;;;5114847;28;19912;-79
2022/07/29 13:14:39;;;;;;;;;;;29.20;45.10;;;;;;5114526;28;19908;-78
2022/07/29 13:17:11;;;;;;;;;;;29.30;44.70;;;;;;5113284;28;19912;-78
2022/07/29 13:19:39;;;;;;;;;;;29.40;44.90;;;;;;5114331;28;20311;-78
2022/07/29 13:22:05;;;;;;;;;;;29.40;44.70;;;;;;5114379;28;19914;-79
2022/07/29 13:24:31;;;;;;;;;;;29.50;44.40;;;;;;5114643;28;19908;-80
2022/07/29 13:26:57;;;;;;;;;;;29.60;44.60;;;;;;5114604;28;19991;-79
2022/07/29 13:29:23;;;;;;;;;;;29.70;44.70;;;;;;5114640;28;19908;-79
2022/07/29 13:31:48;;;;;;;;;;;29.80;44.10;;;;;;5115350;28;19914;-80
2022/07/29 13:34:14;;;;;;;;;;;29.90;44.00;;;;;;5114461;28;20377;-79
2022/07/29 13:36:39;;;;;;;;;;;30.00;44.30;;;;;;5113421;28;20019;-79
2022/07/29 13:39:05;;;;;;;;;;;30.20;44.50;;;;;;5115789;28;19934;-78
2022/07/29 13:41:30;;;;;;;;;;;30.50;44.60;;;;;;5115217;28;19918;-79
2022/07/29 13:43:56;;;;;;;;;;;30.80;43.90;;;;;;5114465;28;19952;-78
2022/07/29 13:46:21;;;;;;;;;;;31.10;44.30;;;;;;5114381;28;19999;-79
2022/07/29 13:48:47;;;;;;;;;;;31.40;42.90;;;;;;5114795;28;19907;-79
2022/07/29 13:51:12;;;;;;;;;;;31.80;43.40;;;;;;5115084;28;19915;-81
2022/07/29 13:53:38;;;;;;;;;;;32.10;44.00;;;;;;5118496;28;19915;-80
2022/07/29 13:56:05;;;;;;;;;;;32.40;43.20;;;;;;5118481;28;20117;-80
2022/07/29 13:58:32;;;;;;;;;;;32.70;42.60;;;;;;5118233;28;19916;-80
2022/07/29 14:00:58;;;;;;;;;;;33.10;42.50;;;;;;5118320;28;19918;-81
2022/07/29 14:03:24;;;;;;;;;;;33.60;42.30;;;;;;5118267;28;19907;-79
2022/07/29 14:05:49;;;;;;;;;;;34.10;41.80;;;;;;5118305;28;20256;-80
2022/07/29 14:08:15;;;;;;;;;;;34.70;42.10;;;;;;5118150;28;19998;-79
2022/07/29 14:10:40;;;;;;;;;;;35.20;41.10;;;;;;5118180;28;19908;-79
2022/07/29 14:13:06;;;;;;;;;;;35.70;40.80;;;;;;5118009;28;20007;-79
2022/07/29 14:15:32;;;;;;;;;;;36.10;39.20;;;;;;5118071;28;19975;-80
2022/07/29 14:17:57;;;;;;;;;;;36.50;40.20;;;;;;5118157;28;19935;-79
2022/07/29 14:20:23;;;;;;;;;;;36.90;40.60;;;;;;5118588;28;19908;-80
2022/07/29 14:22:48;;;;;;;;;;;37.30;39.50;;;;;;5117712;28;19908;-79